createdAt,value
2019-05-29T00:00:21.275Z,99953.84
2019-05-29T00:02:50.331Z,99949.53
2019-05-29T00:05:19.364Z,99943.04
2019-05-29T00:07:48.359Z,99951.41
2019-05-29T00:10:18.574Z,99951.92
2019-05-29T00:12:47.580Z,99958.55
2019-05-29T00:15:16.616Z,99959.53
2019-05-29T00:17:45.594Z,99954.33
2019-05-29T00:20:14.724Z,99964.00
2019-05-29T00:22:43.701Z,99964.91
2019-05-29T00:25:12.667Z,99968.56
2019-05-29T00:27:41.623Z,99975.20
2019-05-29T00:30:13.381Z,99973.48
2019-05-29T00:32:42.462Z,99978.74
2019-05-29T00:35:12.252Z,99984.94
2019-05-29T00:37:41.317Z,99986.27
2019-05-29T00:40:10.929Z,99989.38
2019-05-29T00:42:40.395Z,99992.43
2019-05-29T00:45:09.768Z,99991.16
2019-05-29T00:47:38.833Z,99995.12
2019-05-29T00:50:08.092Z,99994.28
2019-05-29T00:52:37.096Z,100001.80
2019-05-29T00:55:06.195Z,100006.22
2019-05-29T00:57:35.216Z,100007.16
2019-05-29T01:00:04.321Z,100013.72
2019-05-29T01:02:33.420Z,100018.14
2019-05-29T01:05:02.501Z,100016.41
2019-05-29T01:07:31.602Z,100020.86
2019-05-29T01:10:00.652Z,100023.06
2019-05-29T01:12:29.760Z,100023.97
2019-05-29T01:14:58.786Z,100030.15
2019-05-29T01:17:27.874Z,100029.31
2019-05-29T01:19:56.869Z,100029.78
2019-05-29T01:22:25.906Z,100027.20
2019-05-29T01:24:54.915Z,100031.14
2019-05-29T01:27:23.955Z,100033.39
2019-05-29T01:29:53.031Z,100040.41
2019-05-29T01:32:22.118Z,100037.79
2019-05-29T01:34:51.138Z,100043.50
2019-05-29T01:37:20.352Z,100046.55
2019-05-29T01:39:49.309Z,100052.22
2019-05-29T01:42:19.459Z,100053.53
2019-05-29T01:44:48.563Z,100055.73
2019-05-29T01:47:17.590Z,100056.20
2019-05-29T01:49:46.679Z,100056.28
2019-05-29T01:52:15.804Z,100065.46
2019-05-29T01:54:44.873Z,100062.84
2019-05-29T01:57:13.979Z,100063.30
2019-05-29T01:59:43.006Z,100069.44
2019-05-29T02:02:12.366Z,100072.09
2019-05-29T02:04:41.383Z,100073.83
2019-05-29T02:07:10.472Z,100079.08
2019-05-29T02:09:39.523Z,100076.03
2019-05-29T02:12:08.595Z,100083.02
2019-05-29T02:14:37.547Z,100082.59
2019-05-29T02:17:06.606Z,100085.22
2019-05-29T02:19:35.691Z,100080.86
2019-05-29T02:22:04.826Z,100090.49
2019-05-29T02:24:33.880Z,100096.20
2019-05-29T02:27:03.088Z,100093.58
2019-05-29T02:29:32.125Z,100100.56
2019-05-29T02:32:01.278Z,100102.33
2019-05-29T02:34:30.418Z,100107.58
2019-05-29T02:36:59.574Z,100102.33
2019-05-29T02:39:29.388Z,100108.46
2019-05-29T02:41:58.648Z,100108.46
2019-05-29T02:44:28.241Z,100109.34
2019-05-29T02:46:58.655Z,100112.85
2019-05-29T02:49:28.210Z,100119.86
2019-05-29T02:51:57.594Z,100122.06
2019-05-29T02:54:27.690Z,100121.20
2019-05-29T02:56:57.435Z,100122.55
2019-05-29T02:59:27.650Z,100130.84
2019-05-29T03:01:57.194Z,100136.11
2019-05-29T03:04:26.701Z,100137.42
2019-05-29T03:06:57.201Z,100133.95
2019-05-29T03:09:26.647Z,100140.50
2019-05-29T03:11:59.897Z,100140.95
2019-05-29T03:14:27.350Z,100147.47
2019-05-29T03:16:56.378Z,100146.62
2019-05-29T03:19:25.954Z,100148.38
2019-05-29T03:21:55.130Z,100154.51
2019-05-29T03:24:24.541Z,100149.29
2019-05-29T03:26:54.109Z,100158.03
2019-05-29T03:29:23.179Z,100158.03
2019-05-29T03:31:52.258Z,100161.99
2019-05-29T03:34:21.338Z,100163.75
2019-05-29T03:36:50.414Z,100166.36
2019-05-29T03:39:19.407Z,100167.27
2019-05-29T03:41:48.487Z,100167.27
2019-05-29T03:44:17.542Z,100175.13
2019-05-29T03:46:46.603Z,100169.88
2019-05-29T03:49:15.673Z,100173.81
2019-05-29T03:51:44.799Z,100176.89
2019-05-29T03:54:13.876Z,100176.44
2019-05-29T03:56:42.956Z,100179.91
2019-05-29T03:59:12.101Z,100189.09
2019-05-29T04:01:41.194Z,100194.31
2019-05-29T04:04:10.205Z,100195.19
2019-05-29T04:06:39.290Z,100191.27
2019-05-29T04:09:08.449Z,100203.94
2019-05-29T04:11:38.677Z,100203.05
2019-05-29T04:14:07.797Z,100202.17
2019-05-29T04:16:57.777Z,100200.44
2019-05-29T04:19:08.934Z,100199.98
2019-05-29T04:21:38.805Z,100207.40
2019-05-29T04:24:07.956Z,100213.50
2019-05-29T04:26:40.581Z,100215.23
2019-05-29T04:29:10.147Z,100217.02
2019-05-29T04:31:39.202Z,100220.47
2019-05-29T04:34:08.262Z,100209.98
2019-05-29T04:36:38.860Z,100220.02
2019-05-29T04:39:08.217Z,100223.07
2019-05-29T04:41:38.720Z,100225.70
2019-05-29T04:44:08.137Z,100233.13
2019-05-29T04:46:38.501Z,100237.06
2019-05-29T04:49:08.071Z,100242.70
2019-05-29T04:51:37.518Z,100250.13
2019-05-29T04:54:06.617Z,100248.36
2019-05-29T04:56:36.913Z,100250.98
2019-05-29T04:59:06.005Z,100251.84
2019-05-29T05:01:35.131Z,100263.22
2019-05-29T05:04:04.212Z,100269.30
2019-05-29T05:06:33.291Z,100276.72
2019-05-29T05:09:02.394Z,100276.70
2019-05-29T05:11:31.529Z,100277.08
2019-05-29T05:14:01.777Z,100277.03
2019-05-29T05:16:31.659Z,100277.86
2019-05-29T05:19:00.863Z,100284.82
2019-05-29T05:21:30.006Z,100286.11
2019-05-29T05:23:59.140Z,100289.16
2019-05-29T05:26:28.301Z,100290.90
2019-05-29T05:28:57.435Z,100287.84
2019-05-29T05:31:26.550Z,100285.19
2019-05-29T05:33:55.646Z,100289.06
2019-05-29T05:36:24.954Z,100296.45
2019-05-29T05:38:54.013Z,100293.76
2019-05-29T05:41:23.031Z,100298.52
2019-05-29T05:43:52.281Z,100290.09
2019-05-29T05:46:24.688Z,100300.44
2019-05-29T05:48:52.257Z,100307.22
2019-05-29T05:51:21.473Z,100306.40
2019-05-29T05:53:50.560Z,100318.53
2019-05-29T05:56:19.675Z,100321.21
2019-05-29T05:58:48.754Z,100323.47
2019-05-29T06:01:17.820Z,100304.03
2019-05-29T06:03:46.928Z,100312.25
2019-05-29T06:06:16.040Z,100306.03
2019-05-29T06:08:45.304Z,100311.39
2019-05-29T06:11:14.374Z,100318.40
2019-05-29T06:13:43.662Z,100325.64
2019-05-29T06:16:12.788Z,100330.71
2019-05-29T06:18:43.025Z,100328.69
2019-05-29T06:21:12.373Z,100329.47
2019-05-29T06:23:41.672Z,100326.62
2019-05-29T06:26:10.844Z,100335.87
2019-05-29T06:28:41.276Z,100332.24
2019-05-29T06:31:10.439Z,100337.88
2019-05-29T06:33:39.584Z,100337.17
2019-05-29T06:36:08.746Z,100339.81
2019-05-29T06:38:37.849Z,100348.30
2019-05-29T06:41:06.950Z,100346.48
2019-05-29T06:43:36.088Z,100349.76
2019-05-29T06:46:05.253Z,100347.83
2019-05-29T06:48:53.632Z,100349.86
2019-05-29T06:51:05.187Z,100359.28
2019-05-29T06:53:35.537Z,100359.75
2019-05-29T06:56:04.896Z,100357.70
2019-05-29T06:58:34.277Z,100355.34
2019-05-29T07:01:03.303Z,100358.08
2019-05-29T07:03:32.446Z,100357.17
2019-05-29T07:06:01.572Z,100359.98
2019-05-29T07:08:38.806Z,100354.60
2019-05-29T07:11:01.513Z,100361.07
2019-05-29T07:13:34.688Z,100363.23
2019-05-29T07:16:01.349Z,100361.92
2019-05-29T07:18:30.523Z,100355.64
2019-05-29T07:20:59.643Z,100368.05
2019-05-29T07:23:28.728Z,100367.02
2019-05-29T07:25:57.688Z,100371.61
2019-05-29T07:28:27.194Z,100369.25
2019-05-29T07:31:02.266Z,100369.25
2019-05-29T07:33:27.112Z,100366.06
2019-05-29T07:35:56.235Z,100374.45
2019-05-29T07:38:25.271Z,100374.45
2019-05-29T07:40:54.321Z,100370.88
2019-05-29T07:43:23.327Z,100394.09
2019-05-29T07:45:52.375Z,100377.03
2019-05-29T07:48:21.411Z,100377.39
2019-05-29T07:51:04.319Z,100375.91
2019-05-29T07:53:21.213Z,100369.34
2019-05-29T07:55:50.273Z,100377.28
2019-05-29T07:58:19.350Z,100380.92
2019-05-29T08:01:09.616Z,100383.73
2019-05-29T08:03:19.304Z,100383.48
2019-05-29T08:05:51.555Z,100381.20
2019-05-29T08:08:19.238Z,100409.66
2019-05-29T08:10:49.686Z,100388.12
2019-05-29T08:13:18.902Z,100389.59
2019-05-29T08:15:59.915Z,100387.52
2019-05-29T08:18:19.016Z,100394.55
2019-05-29T08:20:48.243Z,100392.09
2019-05-29T08:23:17.176Z,100392.68
2019-05-29T08:25:47.513Z,100389.44
2019-05-29T08:28:16.678Z,100384.91
2019-05-29T08:30:51.770Z,100386.46
2019-05-29T08:33:16.591Z,100388.69
2019-05-29T08:35:45.495Z,100397.11
2019-05-29T08:38:14.560Z,100388.12
2019-05-29T08:40:43.653Z,100397.47
2019-05-29T08:43:12.685Z,100401.95
2019-05-29T08:45:41.745Z,100404.48
2019-05-29T08:48:10.948Z,100404.22
2019-05-29T08:50:40.016Z,100402.16
2019-05-29T08:53:09.202Z,100409.77
2019-05-29T08:55:38.291Z,100396.22
2019-05-29T08:58:07.388Z,100402.89
2019-05-29T09:00:36.486Z,100406.02
2019-05-29T09:03:05.859Z,100399.08
2019-05-29T09:05:34.945Z,100409.64
2019-05-29T09:08:03.948Z,100407.19
2019-05-29T09:10:33.019Z,100407.67
2019-05-29T09:13:05.120Z,100399.89
2019-05-29T09:15:32.767Z,100402.59
2019-05-29T09:18:01.849Z,100401.00
2019-05-29T09:20:57.378Z,100399.37
2019-05-29T09:23:01.694Z,100400.25
2019-05-29T09:25:30.722Z,100397.33
2019-05-29T09:27:59.790Z,100394.43
2019-05-29T09:30:28.987Z,100387.28
2019-05-29T09:32:57.992Z,100390.34
2019-05-29T09:35:27.005Z,100391.72
2019-05-29T09:37:56.162Z,100389.67
2019-05-29T09:40:25.264Z,100384.02
2019-05-29T09:42:54.466Z,100389.48
2019-05-29T09:45:23.548Z,100393.88
2019-05-29T09:47:52.628Z,100388.35
2019-05-29T09:50:25.052Z,100391.38
2019-05-29T09:52:54.453Z,100396.52
2019-05-29T09:55:23.199Z,100389.66
2019-05-29T09:57:53.763Z,100397.41
2019-05-29T10:00:23.125Z,100392.91
2019-05-29T10:02:52.816Z,100399.99
2019-05-29T10:05:22.879Z,100404.81
2019-05-29T10:07:53.141Z,100405.93
2019-05-29T10:10:22.813Z,100402.19
2019-05-29T10:12:52.061Z,100403.28
2019-05-29T10:15:21.081Z,100407.78
2019-05-29T10:17:50.216Z,100401.41
2019-05-29T10:20:19.335Z,100403.63
2019-05-29T10:22:48.404Z,100407.80
2019-05-29T10:25:17.433Z,100404.48
2019-05-29T10:27:47.185Z,100409.75
2019-05-29T10:30:16.361Z,100410.23
2019-05-29T10:32:46.251Z,100406.30
2019-05-29T10:35:15.355Z,100412.73
2019-05-29T10:37:44.600Z,100412.84
2019-05-29T10:40:13.657Z,100409.29
2019-05-29T10:42:43.136Z,100409.86
2019-05-29T10:45:12.203Z,100397.72
2019-05-29T10:47:41.235Z,100401.23
2019-05-29T10:50:10.831Z,100402.58
2019-05-29T10:52:39.977Z,100395.26
2019-05-29T10:55:09.167Z,100404.00
2019-05-29T10:57:38.246Z,100402.80
2019-05-29T11:00:07.391Z,100394.53
2019-05-29T11:02:36.430Z,100389.05
2019-05-29T11:05:05.870Z,100390.77
2019-05-29T11:07:34.921Z,100391.28
2019-05-29T11:10:03.991Z,100387.55
2019-05-29T11:12:33.044Z,100390.70
2019-05-29T11:15:19.908Z,100390.46
2019-05-29T11:17:32.886Z,100387.50
2019-05-29T11:20:01.876Z,100378.85
2019-05-29T11:22:30.949Z,100380.42
2019-05-29T11:25:20.680Z,100385.26
2019-05-29T11:27:30.935Z,100383.91
2019-05-29T11:30:00.224Z,100384.88
2019-05-29T11:32:29.301Z,100393.95
2019-05-29T11:34:59.667Z,100385.79
2019-05-29T11:37:28.764Z,100375.05
2019-05-29T11:39:59.011Z,100363.20
2019-05-29T11:42:28.342Z,100366.00
2019-05-29T11:44:57.428Z,100375.83
2019-05-29T11:47:26.493Z,100374.14
2019-05-29T11:49:55.557Z,100363.61
2019-05-29T11:52:26.519Z,100367.59
2019-05-29T11:54:59.169Z,100361.39
2019-05-29T11:57:26.193Z,100365.73
2019-05-29T11:59:56.036Z,100363.27
2019-05-29T12:02:26.091Z,100373.80
2019-05-29T12:04:55.238Z,100368.09
2019-05-29T12:07:24.326Z,100366.25
2019-05-29T12:09:55.322Z,100366.19
2019-05-29T12:12:24.508Z,100360.49
2019-05-29T12:15:05.999Z,100363.66
2019-05-29T12:17:24.368Z,100361.88
2019-05-29T12:19:54.136Z,100361.82
2019-05-29T12:22:23.165Z,100355.27
2019-05-29T12:24:52.547Z,100349.52
2019-05-29T12:27:21.641Z,100355.36
2019-05-29T12:29:50.737Z,100352.59
2019-05-29T12:32:19.784Z,100352.21
2019-05-29T12:34:53.780Z,100352.21
2019-05-29T12:37:19.686Z,100353.18
2019-05-29T12:39:48.713Z,100353.38
2019-05-29T12:42:17.793Z,100350.69
2019-05-29T12:44:46.821Z,100363.21
2019-05-29T12:47:15.907Z,100366.89
2019-05-29T12:49:45.013Z,100357.52
2019-05-29T12:52:14.043Z,100347.75
2019-05-29T12:54:43.158Z,100347.12
2019-05-29T12:57:12.230Z,100357.95
2019-05-29T12:59:43.748Z,100352.00
2019-05-29T13:02:13.172Z,100343.16
2019-05-29T13:05:06.331Z,100356.45
2019-05-29T13:07:13.114Z,100349.37
2019-05-29T13:09:42.135Z,100350.45
2019-05-29T13:12:11.262Z,100351.98
2019-05-29T13:14:40.276Z,100350.55
2019-05-29T13:17:09.310Z,100343.19
2019-05-29T13:19:38.348Z,100344.33
2019-05-29T13:22:09.018Z,100342.79
2019-05-29T13:24:38.091Z,100333.33
2019-05-29T13:27:07.213Z,100346.91
2019-05-29T13:29:36.319Z,100344.06
2019-05-29T13:32:07.334Z,100342.61
2019-05-29T13:34:36.244Z,100345.19
2019-05-29T13:37:08.102Z,100334.37
2019-05-29T13:39:36.116Z,100340.69
2019-05-29T13:42:10.754Z,100338.11
2019-05-29T13:44:35.977Z,100331.13
2019-05-29T13:47:06.217Z,100329.78
2019-05-29T13:49:35.448Z,100331.89
2019-05-29T13:52:09.990Z,100324.36
2019-05-29T13:54:35.317Z,100329.44
2019-05-29T13:57:05.114Z,100325.30
2019-05-29T13:59:35.166Z,100322.53
2019-05-29T14:02:06.232Z,100324.80
2019-05-29T14:04:35.067Z,100325.33
2019-05-29T14:07:04.928Z,100331.00
2019-05-29T14:09:34.597Z,100328.48
2019-05-29T14:12:05.096Z,100329.95
2019-05-29T14:14:34.367Z,100326.46
2019-05-29T14:17:04.552Z,100330.70
2019-05-29T14:19:33.699Z,100322.28
2019-05-29T14:22:03.059Z,100327.08
2019-05-29T14:24:32.204Z,100326.13
2019-05-29T14:27:01.658Z,100326.13
2019-05-29T14:29:30.741Z,100315.91
2019-05-29T14:32:00.986Z,100321.28
2019-05-29T14:34:30.186Z,100322.91
2019-05-29T14:36:59.213Z,100324.16
2019-05-29T14:39:28.232Z,100312.46
2019-05-29T14:41:57.253Z,100316.86
2019-05-29T14:44:26.453Z,100318.86
2019-05-29T14:46:55.502Z,100314.46
2019-05-29T14:49:27.003Z,100318.10
2019-05-29T14:51:55.402Z,100318.48
2019-05-29T14:54:40.639Z,100314.64
2019-05-29T14:56:55.345Z,100321.55
2019-05-29T14:59:24.480Z,100314.47
2019-05-29T15:01:53.516Z,100318.87
2019-05-29T15:04:22.607Z,100308.91
2019-05-29T15:06:51.776Z,100315.02
2019-05-29T15:09:20.783Z,100315.04
2019-05-29T15:11:49.946Z,100315.25
2019-05-29T15:14:19.100Z,100319.45
2019-05-29T15:16:48.149Z,100330.84
2019-05-29T15:19:17.226Z,100326.61
2019-05-29T15:21:46.265Z,100328.47
2019-05-29T15:24:15.892Z,100327.31
2019-05-29T15:26:45.076Z,100332.97
2019-05-29T15:29:16.164Z,100235.50
2019-05-29T15:31:44.874Z,100327.66
2019-05-29T15:34:14.429Z,100338.39
2019-05-29T15:36:43.655Z,100331.67
2019-05-29T15:39:12.746Z,100336.44
2019-05-29T15:41:41.743Z,100329.34
2019-05-29T15:44:10.889Z,100333.59
2019-05-29T15:46:39.971Z,100340.03
2019-05-29T15:49:10.994Z,100332.43
2019-05-29T15:51:40.186Z,100331.67
2019-05-29T15:54:09.238Z,100330.62
2019-05-29T15:56:38.306Z,100330.95
2019-05-29T15:59:07.858Z,100329.51
2019-05-29T16:01:38.207Z,100327.57
2019-05-29T16:04:07.612Z,100334.58
2019-05-29T16:06:36.748Z,100328.80
2019-05-29T16:09:08.163Z,100332.94
2019-05-29T16:11:37.414Z,100325.43
2019-05-29T16:14:06.505Z,100324.66
2019-05-29T16:16:35.641Z,100325.55
2019-05-29T16:19:04.782Z,100325.16
2019-05-29T16:21:33.822Z,100319.80
2019-05-29T16:24:03.113Z,100323.02
2019-05-29T16:26:32.276Z,100322.06
2019-05-29T16:29:01.436Z,100319.16
2019-05-29T16:31:30.508Z,100319.02
2019-05-29T16:33:59.600Z,100321.71
2019-05-29T16:36:28.806Z,100322.62
2019-05-29T16:38:57.881Z,100322.62
2019-05-29T16:41:26.973Z,100320.25
2019-05-29T16:43:56.055Z,100321.00
2019-05-29T16:46:25.147Z,100327.95
2019-05-29T16:48:54.338Z,100321.90
2019-05-29T16:51:26.247Z,100325.13
2019-05-29T16:53:55.351Z,100325.13
2019-05-29T16:56:24.336Z,100322.39
2019-05-29T16:58:53.463Z,100322.28
2019-05-29T17:01:23.817Z,100322.67
2019-05-29T17:03:53.055Z,100325.27
2019-05-29T17:06:22.640Z,100321.13
2019-05-29T17:08:51.810Z,100326.02
2019-05-29T17:11:23.403Z,100326.30
2019-05-29T17:13:52.092Z,100323.09
2019-05-29T17:16:22.584Z,100325.45
2019-05-29T17:18:51.951Z,100324.84
2019-05-29T17:21:21.227Z,100317.63
2019-05-29T17:23:50.397Z,100319.28
2019-05-29T17:26:20.708Z,100319.91
2019-05-29T17:28:49.822Z,100336.63
2019-05-29T17:31:18.983Z,100315.43
2019-05-29T17:33:48.109Z,100321.40
2019-05-29T17:36:17.521Z,100318.02
2019-05-29T17:38:46.627Z,100319.59
2019-05-29T17:41:17.180Z,100315.53
2019-05-29T17:43:46.519Z,100319.84
2019-05-29T17:46:15.610Z,100218.34
2019-05-29T17:48:50.658Z,100318.00
2019-05-29T17:51:19.810Z,100321.73
2019-05-29T17:53:49.216Z,100324.73
2019-05-29T17:56:29.684Z,100326.97
2019-05-29T17:58:49.563Z,100329.09
2019-05-29T18:01:19.959Z,100330.86
2019-05-29T18:03:49.412Z,100335.15
2019-05-29T18:06:18.869Z,100335.31
2019-05-29T18:08:48.501Z,100342.65
2019-05-29T18:11:19.461Z,100336.20
2019-05-29T18:14:03.863Z,100327.14
2019-05-29T18:16:58.031Z,100336.14
2019-05-29T18:19:44.378Z,100335.81
2019-05-29T18:22:25.910Z,100339.63
2019-05-29T18:24:59.806Z,100340.73
2019-05-29T18:38:15.821Z,100376.83
2019-05-29T18:40:45.312Z,100343.88
2019-05-29T18:43:17.686Z,100343.15
2019-05-29T18:45:47.024Z,100345.08
2019-05-29T18:48:19.487Z,100344.73
2019-05-29T18:50:48.914Z,100343.75
2019-05-29T18:53:25.368Z,100345.16
2019-05-29T18:55:52.414Z,100343.05
2019-05-29T18:58:24.112Z,100344.17
2019-05-29T19:00:56.473Z,100341.72
2019-05-29T19:03:32.820Z,100341.66
2019-05-29T19:06:05.552Z,100345.16
2019-05-29T19:08:36.242Z,100341.16
2019-05-29T19:11:08.441Z,100343.86
2019-05-29T19:13:38.270Z,100346.50
2019-05-29T19:16:10.606Z,100355.39
2019-05-29T19:18:45.039Z,100357.98
2019-05-29T19:21:16.755Z,100348.64
2019-05-29T19:23:46.235Z,100358.31
2019-05-29T19:26:15.715Z,100358.22
2019-05-29T19:28:45.334Z,100360.39
2019-05-29T19:31:15.620Z,100366.48
2019-05-29T19:33:45.774Z,100369.89
2019-05-29T19:36:15.843Z,100367.97
2019-05-29T19:38:45.343Z,100370.53
2019-05-29T19:41:15.501Z,100377.91
2019-05-29T19:43:45.792Z,100384.07
2019-05-29T19:46:19.228Z,100388.78
2019-05-29T19:48:48.599Z,100385.23
2019-05-29T19:51:20.523Z,100391.27
2019-05-29T19:53:50.143Z,100391.05
2019-05-29T19:56:19.350Z,100395.34
2019-05-29T19:58:48.635Z,100402.64
2019-05-29T20:01:30.469Z,100405.48
2019-05-29T20:03:49.177Z,100412.27
2019-05-29T20:06:18.407Z,100409.28
2019-05-29T20:08:47.804Z,100408.55
2019-05-29T20:11:16.929Z,100405.63
2019-05-29T20:13:46.078Z,100414.66
2019-05-29T20:16:15.304Z,100411.70
2019-05-29T20:18:44.478Z,100415.42
2019-05-29T20:21:13.578Z,100416.88
2019-05-29T20:23:42.788Z,100408.08
2019-05-29T20:26:12.007Z,100411.72
2019-05-29T20:28:41.169Z,100414.00
2019-05-29T20:31:12.053Z,100412.30
2019-05-29T20:33:41.441Z,100413.26
2019-05-29T20:36:10.670Z,100414.17
2019-05-29T20:38:39.851Z,100411.56
2019-05-29T20:41:09.019Z,100420.91
2019-05-29T20:43:39.335Z,100429.70
2019-05-29T20:46:08.822Z,100421.69
2019-05-29T20:48:38.763Z,100420.30
2019-05-29T20:51:07.938Z,100420.70
2019-05-29T20:53:37.528Z,100421.48
2019-05-29T20:56:06.770Z,100423.17
2019-05-29T20:58:37.759Z,100421.81
2019-05-29T21:01:06.992Z,100421.30
2019-05-29T21:03:36.330Z,100426.16
2019-05-29T21:06:05.775Z,100417.02
2019-05-29T21:08:35.175Z,100420.63
2019-05-29T21:11:04.334Z,100421.17
2019-05-29T21:13:33.577Z,100431.03
2019-05-29T21:16:02.809Z,100431.54
2019-05-29T21:18:32.007Z,100433.34
2019-05-29T21:21:01.265Z,100430.76
2019-05-29T21:23:30.738Z,100430.48
2019-05-29T21:25:59.930Z,100430.63
2019-05-29T21:28:39.789Z,100429.49
2019-05-29T21:31:00.107Z,100434.04
2019-05-29T21:33:29.326Z,100435.05
2019-05-29T21:35:58.592Z,100435.22
2019-05-29T21:38:27.787Z,100432.66
2019-05-29T21:40:57.130Z,100434.94
2019-05-29T21:43:26.503Z,100434.20
2019-05-29T21:45:55.835Z,100426.33
2019-05-29T21:48:25.026Z,100430.36
2019-05-29T21:50:54.334Z,100428.66
2019-05-29T21:53:23.594Z,100426.02
2019-05-29T21:55:52.789Z,100430.42
2019-05-29T21:58:21.957Z,100431.75
2019-05-29T22:00:51.685Z,100434.81
2019-05-29T22:03:21.027Z,100435.28
2019-05-29T22:05:50.444Z,100436.22
2019-05-29T22:08:19.817Z,100435.38
2019-05-29T22:10:49.157Z,100431.02
2019-05-29T22:13:18.501Z,100443.34
2019-05-29T22:15:47.753Z,100441.52
2019-05-29T22:18:17.034Z,100435.72
2019-05-29T22:20:46.200Z,100437.90
2019-05-29T22:23:15.303Z,100434.34
2019-05-29T22:25:44.442Z,100432.60
2019-05-29T22:28:13.649Z,100433.07
2019-05-29T22:30:42.802Z,100430.90
2019-05-29T22:33:11.879Z,100430.64
2019-05-29T22:35:41.054Z,100427.27
2019-05-29T22:38:10.157Z,100424.77
2019-05-29T22:40:39.277Z,100418.30
2019-05-29T22:43:08.448Z,100418.05
2019-05-29T22:45:37.579Z,100419.64
2019-05-29T22:48:06.726Z,100421.13
2019-05-29T22:50:35.932Z,100419.10
2019-05-29T22:53:05.101Z,100419.72
2019-05-29T22:55:34.209Z,100422.09
2019-05-29T22:58:05.685Z,100418.23
2019-05-29T23:00:34.825Z,100421.97
2019-05-29T23:03:03.929Z,100418.14
2019-05-29T23:05:33.021Z,100416.57
2019-05-29T23:08:02.562Z,100414.03
2019-05-29T23:10:31.805Z,100413.77
2019-05-29T23:13:03.883Z,100412.61
2019-05-29T23:15:32.753Z,100413.17
2019-05-29T23:18:02.834Z,100411.52
2019-05-29T23:20:31.901Z,100408.54
2019-05-29T23:23:01.054Z,100413.84
2019-05-29T23:25:32.995Z,100410.40
2019-05-29T23:28:03.221Z,100409.16
2019-05-29T23:30:32.453Z,100412.73
2019-05-29T23:33:01.566Z,100415.05
2019-05-29T23:35:30.742Z,100408.47
2019-05-29T23:37:59.879Z,100404.16
2019-05-29T23:40:28.910Z,100409.03
2019-05-29T23:42:57.979Z,100407.27
2019-05-29T23:45:27.085Z,100405.58
2019-05-29T23:47:57.589Z,100403.30
2019-05-29T23:50:26.715Z,100402.43
2019-05-29T23:52:55.935Z,100403.26
2019-05-29T23:55:25.005Z,100407.64
2019-05-29T23:57:54.125Z,100398.41
